sensor_id;sensor_type;location;lat;lon;timestamp;temperature;humidity
23237;DHT22;11787;52.018;8.570;2023-08-31T00:01:38;13.40;99.90
23237;DHT22;11787;52.018;8.570;2023-08-31T00:04:04;13.30;99.90
23237;DHT22;11787;52.018;8.570;2023-08-31T00:06:30;13.30;99.90
23237;DHT22;11787;52.018;8.570;2023-08-31T00:08:55;13.30;99.90
23237;DHT22;11787;52.018;8.570;2023-08-31T00:11:21;13.20;99.90
23237;DHT22;11787;52.018;8.570;2023-08-31T00:13:46;13.20;99.90
23237;DHT22;11787;52.018;8.570;2023-08-31T00:16:12;13.20;99.90
23237;DHT22;11787;52.018;8.570;2023-08-31T00:18:37;13.20;99.90
23237;DHT22;11787;52.018;8.570;2023-08-31T00:21:04;13.10;99.90
23237;DHT22;11787;52.018;8.570;2023-08-31T00:23:29;13.10;99.90
23237;DHT22;11787;52.018;8.570;2023-08-31T00:25:55;13.10;99.90
23237;DHT22;11787;52.018;8.570;2023-08-31T00:28:22;13.10;99.90
23237;DHT22;11787;52.018;8.570;2023-08-31T00:30:48;13.10;99.90
23237;DHT22;11787;52.018;8.570;2023-08-31T00:33:14;13.10;99.90
23237;DHT22;11787;52.018;8.570;2023-08-31T00:35:39;13.00;99.90
23237;DHT22;11787;52.018;8.570;2023-08-31T00:38:11;13.00;99.90
23237;DHT22;11787;52.018;8.570;2023-08-31T00:40:40;13.10;99.90
23237;DHT22;11787;52.018;8.570;2023-08-31T00:43:10;13.00;99.90
23237;DHT22;11787;52.018;8.570;2023-08-31T00:45:36;13.00;99.90
23237;DHT22;11787;52.018;8.570;2023-08-31T00:48:03;13.00;99.90
23237;DHT22;11787;52.018;8.570;2023-08-31T00:50:29;13.00;99.90
23237;DHT22;11787;52.018;8.570;2023-08-31T00:52:55;13.00;99.90
23237;DHT22;11787;52.018;8.570;2023-08-31T00:55:20;12.90;99.90
23237;DHT22;11787;52.018;8.570;2023-08-31T00:57:46;12.90;99.90
23237;DHT22;11787;52.018;8.570;2023-08-31T01:00:11;12.90;99.90
23237;DHT22;11787;52.018;8.570;2023-08-31T01:07:57;12.90;99.90
23237;DHT22;11787;52.018;8.570;2023-08-31T01:13:10;12.90;99.90
23237;DHT22;11787;52.018;8.570;2023-08-31T01:15:39;12.80;99.90
23237;DHT22;11787;52.018;8.570;2023-08-31T01:18:06;12.80;99.90
23237;DHT22;11787;52.018;8.570;2023-08-31T01:20:34;12.80;99.90
23237;DHT22;11787;52.018;8.570;2023-08-31T01:23:09;12.90;99.90
23237;DHT22;11787;52.018;8.570;2023-08-31T01:25:35;12.80;99.90
23237;DHT22;11787;52.018;8.570;2023-08-31T01:28:02;12.90;99.90
23237;DHT22;11787;52.018;8.570;2023-08-31T01:30:31;12.90;99.90
23237;DHT22;11787;52.018;8.570;2023-08-31T01:32:58;12.90;99.90
23237;DHT22;11787;52.018;8.570;2023-08-31T01:35:23;12.80;99.90
23237;DHT22;11787;52.018;8.570;2023-08-31T01:38:01;12.90;99.90
23237;DHT22;11787;52.018;8.570;2023-08-31T01:40:32;12.90;99.90
23237;DHT22;11787;52.018;8.570;2023-08-31T01:43:02;12.90;99.90
23237;DHT22;11787;52.018;8.570;2023-08-31T01:45:28;12.80;99.90
23237;DHT22;11787;52.018;8.570;2023-08-31T01:47:55;12.80;99.90
23237;DHT22;11787;52.018;8.570;2023-08-31T01:50:21;12.80;99.90
23237;DHT22;11787;52.018;8.570;2023-08-31T01:52:47;12.80;99.90
23237;DHT22;11787;52.018;8.570;2023-08-31T01:55:12;12.80;99.90
23237;DHT22;11787;52.018;8.570;2023-08-31T01:57:41;12.80;99.90
23237;DHT22;11787;52.018;8.570;2023-08-31T02:00:07;12.70;99.90
23237;DHT22;11787;52.018;8.570;2023-08-31T02:02:33;12.80;99.90
23237;DHT22;11787;52.018;8.570;2023-08-31T02:04:58;12.80;99.90
23237;DHT22;11787;52.018;8.570;2023-08-31T02:07:26;12.80;99.90
23237;DHT22;11787;52.018;8.570;2023-08-31T02:09:52;12.70;99.90
23237;DHT22;11787;52.018;8.570;2023-08-31T02:12:17;12.70;99.90
23237;DHT22;11787;52.018;8.570;2023-08-31T02:14:43;12.70;99.90
23237;DHT22;11787;52.018;8.570;2023-08-31T02:17:08;12.70;99.90
23237;DHT22;11787;52.018;8.570;2023-08-31T02:19:34;12.70;99.90
23237;DHT22;11787;52.018;8.570;2023-08-31T02:22:00;12.70;99.90
23237;DHT22;11787;52.018;8.570;2023-08-31T02:24:25;12.70;99.90
23237;DHT22;11787;52.018;8.570;2023-08-31T02:26:51;12.80;99.90
23237;DHT22;11787;52.018;8.570;2023-08-31T02:29:17;12.70;99.90
23237;DHT22;11787;52.018;8.570;2023-08-31T02:31:42;12.80;99.90
23237;DHT22;11787;52.018;8.570;2023-08-31T02:34:08;12.80;99.90
23237;DHT22;11787;52.018;8.570;2023-08-31T02:36:33;12.80;99.90
23237;DHT22;11787;52.018;8.570;2023-08-31T02:38:59;12.80;99.90
23237;DHT22;11787;52.018;8.570;2023-08-31T02:41:25;12.80;99.90
23237;DHT22;11787;52.018;8.570;2023-08-31T02:43:50;12.80;99.90
23237;DHT22;11787;52.018;8.570;2023-08-31T02:46:17;12.80;99.90
23237;DHT22;11787;52.018;8.570;2023-08-31T02:48:43;12.80;99.90
23237;DHT22;11787;52.018;8.570;2023-08-31T02:51:09;12.80;99.90
23237;DHT22;11787;52.018;8.570;2023-08-31T02:53:34;12.80;99.90
23237;DHT22;11787;52.018;8.570;2023-08-31T02:56:00;12.80;99.90
23237;DHT22;11787;52.018;8.570;2023-08-31T02:58:25;12.80;99.90
23237;DHT22;11787;52.018;8.570;2023-08-31T03:00:51;12.70;99.90
23237;DHT22;11787;52.018;8.570;2023-08-31T03:03:17;12.80;99.90
23237;DHT22;11787;52.018;8.570;2023-08-31T03:05:43;12.70;99.90
23237;DHT22;11787;52.018;8.570;2023-08-31T03:08:08;12.70;99.90
23237;DHT22;11787;52.018;8.570;2023-08-31T03:10:34;12.80;99.90
23237;DHT22;11787;52.018;8.570;2023-08-31T03:13:00;12.70;99.90
23237;DHT22;11787;52.018;8.570;2023-08-31T03:15:25;12.70;99.90
23237;DHT22;11787;52.018;8.570;2023-08-31T03:17:51;12.70;99.90
23237;DHT22;11787;52.018;8.570;2023-08-31T03:20:16;12.70;99.90
23237;DHT22;11787;52.018;8.570;2023-08-31T03:22:42;12.60;99.90
23237;DHT22;11787;52.018;8.570;2023-08-31T03:25:08;12.60;99.90
23237;DHT22;11787;52.018;8.570;2023-08-31T03:27:33;12.60;99.90
23237;DHT22;11787;52.018;8.570;2023-08-31T03:29:58;12.60;99.90
23237;DHT22;11787;52.018;8.570;2023-08-31T03:32:24;12.50;99.90
23237;DHT22;11787;52.018;8.570;2023-08-31T03:34:49;12.50;99.90
23237;DHT22;11787;52.018;8.570;2023-08-31T03:37:16;12.50;99.90
23237;DHT22;11787;52.018;8.570;2023-08-31T03:39:41;12.50;99.90
23237;DHT22;11787;52.018;8.570;2023-08-31T03:42:11;12.50;99.90
23237;DHT22;11787;52.018;8.570;2023-08-31T03:44:36;12.50;99.90
23237;DHT22;11787;52.018;8.570;2023-08-31T03:47:03;12.50;99.90
23237;DHT22;11787;52.018;8.570;2023-08-31T03:49:28;12.40;99.90
23237;DHT22;11787;52.018;8.570;2023-08-31T03:51:55;12.50;99.90
23237;DHT22;11787;52.018;8.570;2023-08-31T03:54:20;12.50;99.90
23237;DHT22;11787;52.018;8.570;2023-08-31T03:56:46;12.50;99.90
23237;DHT22;11787;52.018;8.570;2023-08-31T03:59:11;12.40;99.90
23237;DHT22;11787;52.018;8.570;2023-08-31T04:01:37;12.50;99.90
23237;DHT22;11787;52.018;8.570;2023-08-31T04:04:03;12.50;99.90
23237;DHT22;11787;52.018;8.570;2023-08-31T04:06:29;12.50;99.90
23237;DHT22;11787;52.018;8.570;2023-08-31T04:08:55;12.60;99.90
23237;DHT22;11787;52.018;8.570;2023-08-31T04:11:20;12.60;99.90
23237;DHT22;11787;52.018;8.570;2023-08-31T04:13:46;12.60;99.90
23237;DHT22;11787;52.018;8.570;2023-08-31T04:16:11;12.60;99.90
23237;DHT22;11787;52.018;8.570;2023-08-31T04:18:37;12.50;99.90
23237;DHT22;11787;52.018;8.570;2023-08-31T04:21:02;12.50;99.90
23237;DHT22;11787;52.018;8.570;2023-08-31T04:23:28;12.50;99.90
23237;DHT22;11787;52.018;8.570;2023-08-31T04:25:54;12.50;99.90
23237;DHT22;11787;52.018;8.570;2023-08-31T04:28:20;12.40;99.90
23237;DHT22;11787;52.018;8.570;2023-08-31T04:30:45;12.50;99.90
23237;DHT22;11787;52.018;8.570;2023-08-31T04:33:11;12.50;99.90
23237;DHT22;11787;52.018;8.570;2023-08-31T04:35:36;12.50;99.90
23237;DHT22;11787;52.018;8.570;2023-08-31T04:38:02;12.50;99.90
23237;DHT22;11787;52.018;8.570;2023-08-31T04:40:28;12.50;99.90
23237;DHT22;11787;52.018;8.570;2023-08-31T04:42:54;12.50;99.90
23237;DHT22;11787;52.018;8.570;2023-08-31T04:45:20;12.50;99.90
23237;DHT22;11787;52.018;8.570;2023-08-31T04:47:45;12.50;99.90
23237;DHT22;11787;52.018;8.570;2023-08-31T04:50:11;12.60;99.90
23237;DHT22;11787;52.018;8.570;2023-08-31T04:52:36;12.50;99.90
23237;DHT22;11787;52.018;8.570;2023-08-31T04:55:02;12.60;99.90
23237;DHT22;11787;52.018;8.570;2023-08-31T04:57:29;12.60;99.90
23237;DHT22;11787;52.018;8.570;2023-08-31T04:59:54;12.60;99.90
23237;DHT22;11787;52.018;8.570;2023-08-31T05:02:20;12.50;99.90
23237;DHT22;11787;52.018;8.570;2023-08-31T05:04:45;12.60;99.90
23237;DHT22;11787;52.018;8.570;2023-08-31T05:07:11;12.60;99.90
23237;DHT22;11787;52.018;8.570;2023-08-31T05:09:36;12.50;99.90
23237;DHT22;11787;52.018;8.570;2023-08-31T05:12:02;12.50;99.90
23237;DHT22;11787;52.018;8.570;2023-08-31T05:14:30;12.60;99.90
23237;DHT22;11787;52.018;8.570;2023-08-31T05:16:56;12.50;99.90
23237;DHT22;11787;52.018;8.570;2023-08-31T05:19:21;12.50;99.90
23237;DHT22;11787;52.018;8.570;2023-08-31T05:21:47;12.50;99.90
23237;DHT22;11787;52.018;8.570;2023-08-31T05:24:12;12.50;99.90
23237;DHT22;11787;52.018;8.570;2023-08-31T05:26:38;12.50;99.90
23237;DHT22;11787;52.018;8.570;2023-08-31T05:29:04;12.60;99.90
23237;DHT22;11787;52.018;8.570;2023-08-31T05:31:30;12.60;99.90
23237;DHT22;11787;52.018;8.570;2023-08-31T05:33:56;12.60;99.90
23237;DHT22;11787;52.018;8.570;2023-08-31T05:36:21;12.70;99.90
23237;DHT22;11787;52.018;8.570;2023-08-31T05:38:47;12.60;99.90
23237;DHT22;11787;52.018;8.570;2023-08-31T05:41:12;12.70;99.90
23237;DHT22;11787;52.018;8.570;2023-08-31T05:43:38;12.70;99.90
23237;DHT22;11787;52.018;8.570;2023-08-31T05:46:05;12.70;99.90
23237;DHT22;11787;52.018;8.570;2023-08-31T05:48:31;12.70;99.90
23237;DHT22;11787;52.018;8.570;2023-08-31T05:50:56;12.80;99.90
23237;DHT22;11787;52.018;8.570;2023-08-31T05:53:22;12.70;99.90
23237;DHT22;11787;52.018;8.570;2023-08-31T05:55:48;12.70;99.90
23237;DHT22;11787;52.018;8.570;2023-08-31T05:58:13;12.60;99.90
23237;DHT22;11787;52.018;8.570;2023-08-31T06:00:39;12.60;99.90
23237;DHT22;11787;52.018;8.570;2023-08-31T06:03:04;12.60;99.90
23237;DHT22;11787;52.018;8.570;2023-08-31T06:05:31;12.60;99.90
23237;DHT22;11787;52.018;8.570;2023-08-31T06:07:57;12.70;99.90
23237;DHT22;11787;52.018;8.570;2023-08-31T06:10:23;12.70;99.90
23237;DHT22;11787;52.018;8.570;2023-08-31T06:12:49;12.80;99.90
23237;DHT22;11787;52.018;8.570;2023-08-31T06:15:15;12.80;99.90
23237;DHT22;11787;52.018;8.570;2023-08-31T06:17:41;12.80;99.90
23237;DHT22;11787;52.018;8.570;2023-08-31T06:20:07;12.80;99.90
23237;DHT22;11787;52.018;8.570;2023-08-31T06:22:33;12.80;99.90
23237;DHT22;11787;52.018;8.570;2023-08-31T06:24:59;12.80;99.90
23237;DHT22;11787;52.018;8.570;2023-08-31T06:27:25;12.80;99.90
23237;DHT22;11787;52.018;8.570;2023-08-31T06:29:50;12.90;99.90
23237;DHT22;11787;52.018;8.570;2023-08-31T06:32:16;13.00;99.90
23237;DHT22;11787;52.018;8.570;2023-08-31T06:34:42;13.00;99.90
23237;DHT22;11787;52.018;8.570;2023-08-31T06:37:07;12.90;99.90
23237;DHT22;11787;52.018;8.570;2023-08-31T06:39:33;12.90;99.90
23237;DHT22;11787;52.018;8.570;2023-08-31T06:41:59;12.90;99.90
23237;DHT22;11787;52.018;8.570;2023-08-31T06:44:24;12.90;99.90
23237;DHT22;11787;52.018;8.570;2023-08-31T06:46:50;13.00;99.90
23237;DHT22;11787;52.018;8.570;2023-08-31T06:49:15;13.00;99.90
23237;DHT22;11787;52.018;8.570;2023-08-31T06:51:41;13.00;99.90
23237;DHT22;11787;52.018;8.570;2023-08-31T06:54:06;13.10;99.90
23237;DHT22;11787;52.018;8.570;2023-08-31T06:56:35;13.10;99.90
23237;DHT22;11787;52.018;8.570;2023-08-31T06:59:01;13.20;99.90
23237;DHT22;11787;52.018;8.570;2023-08-31T07:01:28;13.30;99.90
23237;DHT22;11787;52.018;8.570;2023-08-31T07:03:53;13.20;99.90
23237;DHT22;11787;52.018;8.570;2023-08-31T07:06:19;13.20;99.90
23237;DHT22;11787;52.018;8.570;2023-08-31T07:08:44;13.20;99.90
23237;DHT22;11787;52.018;8.570;2023-08-31T07:11:13;13.20;99.90
23237;DHT22;11787;52.018;8.570;2023-08-31T07:13:39;13.20;99.90
23237;DHT22;11787;52.018;8.570;2023-08-31T07:16:05;13.40;99.90
23237;DHT22;11787;52.018;8.570;2023-08-31T07:18:30;13.60;99.90
23237;DHT22;11787;52.018;8.570;2023-08-31T07:20:56;13.60;99.90
23237;DHT22;11787;52.018;8.570;2023-08-31T07:23:22;13.70;99.90
23237;DHT22;11787;52.018;8.570;2023-08-31T07:25:47;13.80;99.90
23237;DHT22;11787;52.018;8.570;2023-08-31T07:28:13;13.80;99.90
23237;DHT22;11787;52.018;8.570;2023-08-31T07:30:38;13.90;99.90
23237;DHT22;11787;52.018;8.570;2023-08-31T07:33:04;13.80;99.90
23237;DHT22;11787;52.018;8.570;2023-08-31T07:35:30;13.90;99.90
23237;DHT22;11787;52.018;8.570;2023-08-31T07:37:55;13.90;99.90
23237;DHT22;11787;52.018;8.570;2023-08-31T07:40:21;13.90;99.90
23237;DHT22;11787;52.018;8.570;2023-08-31T07:42:46;13.80;99.90
23237;DHT22;11787;52.018;8.570;2023-08-31T07:45:12;13.80;99.90
23237;DHT22;11787;52.018;8.570;2023-08-31T07:47:37;13.80;99.90
23237;DHT22;11787;52.018;8.570;2023-08-31T07:50:03;13.80;99.90
23237;DHT22;11787;52.018;8.570;2023-08-31T07:52:28;13.80;99.90
23237;DHT22;11787;52.018;8.570;2023-08-31T07:54:54;13.90;99.90
23237;DHT22;11787;52.018;8.570;2023-08-31T07:57:19;13.90;99.90
23237;DHT22;11787;52.018;8.570;2023-08-31T07:59:45;14.00;99.90
23237;DHT22;11787;52.018;8.570;2023-08-31T08:02:10;13.90;99.90
23237;DHT22;11787;52.018;8.570;2023-08-31T08:04:36;14.00;99.90
23237;DHT22;11787;52.018;8.570;2023-08-31T08:07:01;14.00;99.90
23237;DHT22;11787;52.018;8.570;2023-08-31T08:09:28;13.90;99.90
23237;DHT22;11787;52.018;8.570;2023-08-31T08:11:55;13.90;99.90
23237;DHT22;11787;52.018;8.570;2023-08-31T08:14:21;13.80;99.90
23237;DHT22;11787;52.018;8.570;2023-08-31T08:16:46;13.80;99.90
23237;DHT22;11787;52.018;8.570;2023-08-31T08:19:12;13.80;99.90
23237;DHT22;11787;52.018;8.570;2023-08-31T08:21:37;13.80;99.90
23237;DHT22;11787;52.018;8.570;2023-08-31T08:24:02;13.90;99.90
23237;DHT22;11787;52.018;8.570;2023-08-31T08:26:28;14.10;99.90
23237;DHT22;11787;52.018;8.570;2023-08-31T08:28:54;14.10;99.90
23237;DHT22;11787;52.018;8.570;2023-08-31T08:31:19;14.20;99.90
23237;DHT22;11787;52.018;8.570;2023-08-31T08:33:44;14.20;99.90
23237;DHT22;11787;52.018;8.570;2023-08-31T08:36:10;14.20;99.90
23237;DHT22;11787;52.018;8.570;2023-08-31T08:38:35;14.20;99.90
23237;DHT22;11787;52.018;8.570;2023-08-31T08:41:07;14.20;99.90
23237;DHT22;11787;52.018;8.570;2023-08-31T08:43:33;14.20;99.90
23237;DHT22;11787;52.018;8.570;2023-08-31T08:46:00;14.20;99.90
23237;DHT22;11787;52.018;8.570;2023-08-31T08:48:29;14.30;99.90
23237;DHT22;11787;52.018;8.570;2023-08-31T08:50:55;14.40;99.90
23237;DHT22;11787;52.018;8.570;2023-08-31T08:53:21;14.40;99.90
23237;DHT22;11787;52.018;8.570;2023-08-31T08:55:47;14.40;99.90
23237;DHT22;11787;52.018;8.570;2023-08-31T08:58:12;14.50;99.90
23237;DHT22;11787;52.018;8.570;2023-08-31T09:00:38;14.50;99.90
23237;DHT22;11787;52.018;8.570;2023-08-31T09:03:05;14.50;99.90
23237;DHT22;11787;52.018;8.570;2023-08-31T09:05:34;14.50;99.90
23237;DHT22;11787;52.018;8.570;2023-08-31T09:08:00;14.60;99.90
23237;DHT22;11787;52.018;8.570;2023-08-31T09:10:32;14.80;99.90
23237;DHT22;11787;52.018;8.570;2023-08-31T09:12:59;15.10;99.90
23237;DHT22;11787;52.018;8.570;2023-08-31T09:15:24;15.20;99.90
23237;DHT22;11787;52.018;8.570;2023-08-31T09:17:51;15.50;99.90
23237;DHT22;11787;52.018;8.570;2023-08-31T09:20:16;15.60;99.90
23237;DHT22;11787;52.018;8.570;2023-08-31T09:22:42;15.50;99.90
23237;DHT22;11787;52.018;8.570;2023-08-31T09:25:10;15.70;99.90
23237;DHT22;11787;52.018;8.570;2023-08-31T09:27:38;15.80;99.90
23237;DHT22;11787;52.018;8.570;2023-08-31T09:30:08;15.90;99.90
23237;DHT22;11787;52.018;8.570;2023-08-31T09:32:33;15.80;99.90
23237;DHT22;11787;52.018;8.570;2023-08-31T09:34:59;15.90;99.90
23237;DHT22;11787;52.018;8.570;2023-08-31T09:37:28;15.90;99.90
23237;DHT22;11787;52.018;8.570;2023-08-31T09:39:53;15.90;99.90
23237;DHT22;11787;52.018;8.570;2023-08-31T09:42:19;15.70;99.90
23237;DHT22;11787;52.018;8.570;2023-08-31T09:44:45;15.90;99.90
23237;DHT22;11787;52.018;8.570;2023-08-31T09:47:12;16.20;99.90
23237;DHT22;11787;52.018;8.570;2023-08-31T09:49:38;16.30;99.90
23237;DHT22;11787;52.018;8.570;2023-08-31T09:52:04;16.30;99.90
23237;DHT22;11787;52.018;8.570;2023-08-31T09:54:31;16.40;99.90
23237;DHT22;11787;52.018;8.570;2023-08-31T09:56:58;16.20;99.90
23237;DHT22;11787;52.018;8.570;2023-08-31T09:59:26;16.10;99.90
23237;DHT22;11787;52.018;8.570;2023-08-31T10:01:52;16.00;99.90
23237;DHT22;11787;52.018;8.570;2023-08-31T10:04:17;15.90;99.90
23237;DHT22;11787;52.018;8.570;2023-08-31T10:06:43;16.00;99.90
23237;DHT22;11787;52.018;8.570;2023-08-31T10:09:09;16.10;99.90
23237;DHT22;11787;52.018;8.570;2023-08-31T10:11:37;15.90;99.90
23237;DHT22;11787;52.018;8.570;2023-08-31T10:14:03;15.80;99.90
23237;DHT22;11787;52.018;8.570;2023-08-31T10:16:29;15.80;99.90
23237;DHT22;11787;52.018;8.570;2023-08-31T10:18:55;15.80;99.90
23237;DHT22;11787;52.018;8.570;2023-08-31T10:21:21;15.80;99.90
23237;DHT22;11787;52.018;8.570;2023-08-31T10:23:50;16.00;99.90
23237;DHT22;11787;52.018;8.570;2023-08-31T10:26:28;16.20;99.90
23237;DHT22;11787;52.018;8.570;2023-08-31T10:28:55;16.50;99.90
23237;DHT22;11787;52.018;8.570;2023-08-31T10:31:21;17.20;99.90
23237;DHT22;11787;52.018;8.570;2023-08-31T10:33:59;17.40;99.90
23237;DHT22;11787;52.018;8.570;2023-08-31T10:39:06;17.00;99.90
23237;DHT22;11787;52.018;8.570;2023-08-31T10:41:35;17.40;99.90
23237;DHT22;11787;52.018;8.570;2023-08-31T10:44:01;17.80;99.90
23237;DHT22;11787;52.018;8.570;2023-08-31T10:48:55;17.40;99.90
23237;DHT22;11787;52.018;8.570;2023-08-31T10:51:28;17.10;99.90
23237;DHT22;11787;52.018;8.570;2023-08-31T10:59:15;17.60;99.90
23237;DHT22;11787;52.018;8.570;2023-08-31T11:04:22;18.20;99.90
23237;DHT22;11787;52.018;8.570;2023-08-31T11:06:48;18.00;99.90
23237;DHT22;11787;52.018;8.570;2023-08-31T11:09:20;18.00;99.90
23237;DHT22;11787;52.018;8.570;2023-08-31T11:11:46;18.10;99.90
23237;DHT22;11787;52.018;8.570;2023-08-31T11:14:12;17.70;99.90
23237;DHT22;11787;52.018;8.570;2023-08-31T11:16:38;17.40;99.90
23237;DHT22;11787;52.018;8.570;2023-08-31T11:19:03;17.60;99.90
23237;DHT22;11787;52.018;8.570;2023-08-31T11:21:30;17.70;99.90
23237;DHT22;11787;52.018;8.570;2023-08-31T11:23:56;18.00;99.90
23237;DHT22;11787;52.018;8.570;2023-08-31T11:26:26;18.40;99.90
23237;DHT22;11787;52.018;8.570;2023-08-31T11:28:52;18.60;99.90
23237;DHT22;11787;52.018;8.570;2023-08-31T11:31:26;18.80;99.90
23237;DHT22;11787;52.018;8.570;2023-08-31T11:33:53;18.60;99.90
23237;DHT22;11787;52.018;8.570;2023-08-31T11:36:19;18.60;99.90
23237;DHT22;11787;52.018;8.570;2023-08-31T11:38:44;18.40;99.90
23237;DHT22;11787;52.018;8.570;2023-08-31T11:41:10;18.20;99.90
23237;DHT22;11787;52.018;8.570;2023-08-31T11:43:36;18.00;99.90
23237;DHT22;11787;52.018;8.570;2023-08-31T11:46:02;17.80;99.90
23237;DHT22;11787;52.018;8.570;2023-08-31T11:48:28;17.60;99.90
23237;DHT22;11787;52.018;8.570;2023-08-31T11:50:54;17.10;99.90
23237;DHT22;11787;52.018;8.570;2023-08-31T11:53:20;16.60;99.90
23237;DHT22;11787;52.018;8.570;2023-08-31T11:55:49;16.20;99.90
23237;DHT22;11787;52.018;8.570;2023-08-31T11:58:15;16.40;99.90
23237;DHT22;11787;52.018;8.570;2023-08-31T12:00:42;16.60;99.90
23237;DHT22;11787;52.018;8.570;2023-08-31T12:03:07;16.90;99.90
23237;DHT22;11787;52.018;8.570;2023-08-31T12:05:46;17.10;99.90
23237;DHT22;11787;52.018;8.570;2023-08-31T12:08:13;17.20;99.90
23237;DHT22;11787;52.018;8.570;2023-08-31T12:10:41;17.30;99.90
23237;DHT22;11787;52.018;8.570;2023-08-31T12:13:10;17.50;99.90
23237;DHT22;11787;52.018;8.570;2023-08-31T12:15:36;17.70;99.90
23237;DHT22;11787;52.018;8.570;2023-08-31T12:18:08;18.00;99.90
23237;DHT22;11787;52.018;8.570;2023-08-31T12:20:34;18.20;99.90
23237;DHT22;11787;52.018;8.570;2023-08-31T12:23:07;18.10;99.90
23237;DHT22;11787;52.018;8.570;2023-08-31T12:25:32;17.90;99.90
23237;DHT22;11787;52.018;8.570;2023-08-31T12:27:58;17.60;99.90
23237;DHT22;11787;52.018;8.570;2023-08-31T12:30:23;17.20;99.90
23237;DHT22;11787;52.018;8.570;2023-08-31T12:32:51;16.70;99.90
23237;DHT22;11787;52.018;8.570;2023-08-31T12:35:17;16.40;99.90
23237;DHT22;11787;52.018;8.570;2023-08-31T12:37:43;16.40;99.90
23237;DHT22;11787;52.018;8.570;2023-08-31T12:40:08;16.60;99.90
23237;DHT22;11787;52.018;8.570;2023-08-31T12:42:35;17.20;99.90
23237;DHT22;11787;52.018;8.570;2023-08-31T12:45:01;17.50;99.90
23237;DHT22;11787;52.018;8.570;2023-08-31T12:47:26;17.80;99.90
23237;DHT22;11787;52.018;8.570;2023-08-31T12:49:52;17.90;99.90
23237;DHT22;11787;52.018;8.570;2023-08-31T12:52:17;17.80;99.90
23237;DHT22;11787;52.018;8.570;2023-08-31T12:54:43;17.70;99.90
23237;DHT22;11787;52.018;8.570;2023-08-31T12:57:08;17.70;99.90
23237;DHT22;11787;52.018;8.570;2023-08-31T12:59:33;17.90;99.90
23237;DHT22;11787;52.018;8.570;2023-08-31T13:01:59;17.90;99.90
23237;DHT22;11787;52.018;8.570;2023-08-31T13:04:25;17.90;99.90
23237;DHT22;11787;52.018;8.570;2023-08-31T13:06:50;17.70;99.90
23237;DHT22;11787;52.018;8.570;2023-08-31T13:09:16;17.70;99.90
23237;DHT22;11787;52.018;8.570;2023-08-31T13:11:41;17.80;99.90
23237;DHT22;11787;52.018;8.570;2023-08-31T13:14:06;17.90;99.90
23237;DHT22;11787;52.018;8.570;2023-08-31T13:16:32;18.10;99.90
23237;DHT22;11787;52.018;8.570;2023-08-31T13:18:58;17.90;99.90
23237;DHT22;11787;52.018;8.570;2023-08-31T13:21:23;18.00;99.90
23237;DHT22;11787;52.018;8.570;2023-08-31T13:23:49;18.20;99.90
23237;DHT22;11787;52.018;8.570;2023-08-31T13:26:14;18.20;99.90
23237;DHT22;11787;52.018;8.570;2023-08-31T13:28:40;18.00;99.90
23237;DHT22;11787;52.018;8.570;2023-08-31T13:31:06;17.80;99.90
23237;DHT22;11787;52.018;8.570;2023-08-31T13:33:32;17.60;99.90
23237;DHT22;11787;52.018;8.570;2023-08-31T13:35:57;17.40;99.90
23237;DHT22;11787;52.018;8.570;2023-08-31T13:38:26;17.30;99.90
23237;DHT22;11787;52.018;8.570;2023-08-31T13:40:54;17.30;99.90
23237;DHT22;11787;52.018;8.570;2023-08-31T13:43:21;17.10;99.90
23237;DHT22;11787;52.018;8.570;2023-08-31T13:45:48;17.00;99.90
23237;DHT22;11787;52.018;8.570;2023-08-31T13:48:13;16.80;99.90
23237;DHT22;11787;52.018;8.570;2023-08-31T13:50:39;16.70;99.90
23237;DHT22;11787;52.018;8.570;2023-08-31T13:53:04;16.60;99.90
23237;DHT22;11787;52.018;8.570;2023-08-31T13:55:30;16.50;99.90
23237;DHT22;11787;52.018;8.570;2023-08-31T13:58:03;16.30;99.90
23237;DHT22;11787;52.018;8.570;2023-08-31T14:00:28;16.20;99.90
23237;DHT22;11787;52.018;8.570;2023-08-31T14:02:54;16.00;99.90
23237;DHT22;11787;52.018;8.570;2023-08-31T14:05:19;15.90;99.90
23237;DHT22;11787;52.018;8.570;2023-08-31T14:07:45;15.80;99.90
23237;DHT22;11787;52.018;8.570;2023-08-31T14:10:10;15.90;99.90
23237;DHT22;11787;52.018;8.570;2023-08-31T14:12:36;15.90;99.90
23237;DHT22;11787;52.018;8.570;2023-08-31T14:15:02;16.00;99.90
23237;DHT22;11787;52.018;8.570;2023-08-31T14:17:29;16.10;99.90
23237;DHT22;11787;52.018;8.570;2023-08-31T14:19:55;16.30;99.90
23237;DHT22;11787;52.018;8.570;2023-08-31T14:22:20;16.50;99.90
23237;DHT22;11787;52.018;8.570;2023-08-31T14:24:46;16.60;99.90
23237;DHT22;11787;52.018;8.570;2023-08-31T14:27:11;16.80;99.90
23237;DHT22;11787;52.018;8.570;2023-08-31T14:29:37;17.00;99.90
23237;DHT22;11787;52.018;8.570;2023-08-31T14:32:02;17.20;99.90
23237;DHT22;11787;52.018;8.570;2023-08-31T14:34:28;17.30;99.90
23237;DHT22;11787;52.018;8.570;2023-08-31T14:36:53;17.20;99.90
23237;DHT22;11787;52.018;8.570;2023-08-31T14:39:22;17.20;99.90
23237;DHT22;11787;52.018;8.570;2023-08-31T14:41:49;17.20;99.90
23237;DHT22;11787;52.018;8.570;2023-08-31T14:44:15;17.30;99.90
23237;DHT22;11787;52.018;8.570;2023-08-31T14:46:40;17.60;99.90
23237;DHT22;11787;52.018;8.570;2023-08-31T14:49:06;17.70;99.90
23237;DHT22;11787;52.018;8.570;2023-08-31T14:51:32;17.90;99.90
23237;DHT22;11787;52.018;8.570;2023-08-31T14:53:58;17.90;99.90
23237;DHT22;11787;52.018;8.570;2023-08-31T14:56:23;18.00;99.90
23237;DHT22;11787;52.018;8.570;2023-08-31T14:58:49;18.00;99.90
23237;DHT22;11787;52.018;8.570;2023-08-31T15:01:14;18.00;99.90
23237;DHT22;11787;52.018;8.570;2023-08-31T15:03:40;17.90;99.90
23237;DHT22;11787;52.018;8.570;2023-08-31T15:06:05;17.70;99.90
23237;DHT22;11787;52.018;8.570;2023-08-31T15:08:35;17.90;99.90
23237;DHT22;11787;52.018;8.570;2023-08-31T15:11:01;18.00;99.90
23237;DHT22;11787;52.018;8.570;2023-08-31T15:13:27;18.00;99.90
23237;DHT22;11787;52.018;8.570;2023-08-31T15:15:53;17.90;99.90
23237;DHT22;11787;52.018;8.570;2023-08-31T15:18:18;18.00;99.90
23237;DHT22;11787;52.018;8.570;2023-08-31T15:20:44;17.90;99.90
23237;DHT22;11787;52.018;8.570;2023-08-31T15:23:09;17.80;99.90
23237;DHT22;11787;52.018;8.570;2023-08-31T15:25:35;17.60;99.90
23237;DHT22;11787;52.018;8.570;2023-08-31T15:28:00;17.50;99.90
23237;DHT22;11787;52.018;8.570;2023-08-31T15:30:26;17.40;99.90
23237;DHT22;11787;52.018;8.570;2023-08-31T15:32:51;17.40;99.90
23237;DHT22;11787;52.018;8.570;2023-08-31T15:35:16;17.30;99.90
23237;DHT22;11787;52.018;8.570;2023-08-31T15:37:45;17.20;99.90
23237;DHT22;11787;52.018;8.570;2023-08-31T15:40:13;17.10;99.90
23237;DHT22;11787;52.018;8.570;2023-08-31T15:42:38;17.10;99.90
23237;DHT22;11787;52.018;8.570;2023-08-31T15:45:04;17.10;99.90